createdAt,value
2023-05-22T00:03:24.927Z,6.05
2023-05-22T00:07:29.276Z,4.90
2023-05-22T00:11:35.522Z,5.15
2023-05-22T00:15:38.545Z,4.90
2023-05-22T00:19:42.293Z,5.55
2023-05-22T00:23:46.946Z,5.93
2023-05-22T00:27:51.087Z,6.10
2023-05-22T00:31:54.254Z,5.07
2023-05-22T00:35:58.413Z,5.93
2023-05-22T00:40:06.046Z,4.90
2023-05-22T00:44:09.723Z,5.25
2023-05-22T00:48:13.928Z,5.45
2023-05-22T00:52:18.651Z,5.13
2023-05-22T00:56:23.691Z,5.32
2023-05-22T01:00:28.186Z,5.95
2023-05-22T01:04:33.561Z,5.20
2023-05-22T01:08:37.104Z,5.30
2023-05-22T01:12:54.518Z,4.93
2023-05-22T01:17:08.960Z,4.95
2023-05-22T01:21:19.047Z,5.43
2023-05-22T01:25:46.056Z,6.47
2023-05-22T01:30:02.123Z,5.90
2023-05-22T01:34:11.517Z,4.93
2023-05-22T01:38:16.551Z,5.65
2023-05-22T01:42:20.035Z,5.57
2023-05-22T01:46:23.672Z,7.03
2023-05-22T01:50:28.978Z,6.00
2023-05-22T01:54:40.202Z,5.68
2023-05-22T01:58:53.311Z,5.60
2023-05-22T02:03:01.017Z,6.60
2023-05-22T02:07:06.531Z,6.47
2023-05-22T02:11:12.941Z,6.63
2023-05-22T02:15:16.621Z,6.97
2023-05-22T02:19:20.219Z,6.90
2023-05-22T02:23:25.092Z,6.78
2023-05-22T02:27:28.822Z,5.50
2023-05-22T02:31:31.877Z,6.07
2023-05-22T02:35:35.587Z,6.18
2023-05-22T02:39:40.086Z,6.05
2023-05-22T02:43:43.998Z,6.57
2023-05-22T02:47:47.499Z,7.75
2023-05-22T02:51:51.298Z,6.57
2023-05-22T02:55:59.162Z,7.20
2023-05-22T03:00:03.109Z,6.93
2023-05-22T03:04:07.382Z,6.68
2023-05-22T03:08:10.372Z,6.90
2023-05-22T03:12:15.356Z,6.85
2023-05-22T03:16:18.399Z,6.65
2023-05-22T03:20:22.261Z,7.40
2023-05-22T03:24:25.306Z,6.13
2023-05-22T03:28:30.477Z,7.55
2023-05-22T03:32:37.450Z,6.57
2023-05-22T03:36:41.932Z,7.22
2023-05-22T03:40:45.043Z,7.35
2023-05-22T03:44:50.641Z,6.35
2023-05-22T03:48:54.473Z,6.00
2023-05-22T03:52:57.418Z,6.80
2023-05-22T03:57:01.510Z,6.10
2023-05-22T04:01:06.673Z,7.55
2023-05-22T04:05:11.517Z,6.88
2023-05-22T04:09:15.226Z,6.40
2023-05-22T04:13:20.148Z,5.38
2023-05-22T04:17:25.195Z,6.78
2023-05-22T04:21:28.749Z,5.97
2023-05-22T04:25:32.604Z,6.60
2023-05-22T04:29:36.657Z,6.18
2023-05-22T04:33:41.923Z,6.30
2023-05-22T04:37:45.709Z,6.95
2023-05-22T04:41:49.961Z,6.72
2023-05-22T04:45:52.935Z,6.95
2023-05-22T04:49:59.103Z,5.85
2023-05-22T04:54:02.255Z,6.47
2023-05-22T04:58:06.781Z,6.25
2023-05-22T05:02:10.808Z,6.00
2023-05-22T05:06:18.165Z,6.72
2023-05-22T05:10:21.435Z,6.47
2023-05-22T05:14:24.888Z,6.55
2023-05-22T05:18:28.379Z,6.13
2023-05-22T05:22:34.109Z,6.25
2023-05-22T05:26:37.236Z,6.95
2023-05-22T05:30:41.320Z,5.95
2023-05-22T05:34:44.739Z,6.72
2023-05-22T05:38:49.995Z,7.03
2023-05-22T05:42:53.192Z,5.72
2023-05-22T05:46:57.708Z,5.15
2023-05-22T05:51:01.336Z,5.90
2023-05-22T05:55:07.186Z,6.00
2023-05-22T05:59:10.592Z,6.00
2023-05-22T06:03:15.136Z,5.50
2023-05-22T06:07:18.400Z,5.93
2023-05-22T06:11:23.629Z,6.15
2023-05-22T06:15:27.256Z,5.93
2023-05-22T06:19:31.313Z,4.82
2023-05-22T06:23:34.666Z,3.90
2023-05-22T06:27:39.868Z,5.65
2023-05-22T06:31:43.177Z,5.13
2023-05-22T06:35:46.537Z,5.90
2023-05-22T06:39:51.784Z,5.32
2023-05-22T06:43:56.857Z,5.05
2023-05-22T06:48:00.240Z,4.97
2023-05-22T06:52:05.339Z,4.82
2023-05-22T06:56:09.419Z,4.38
2023-05-22T07:00:18.297Z,3.78
2023-05-22T07:04:23.695Z,3.42
2023-05-22T07:08:29.691Z,3.40
2023-05-22T07:12:33.483Z,4.30
2023-05-22T07:16:38.664Z,4.18
2023-05-22T07:20:42.169Z,3.70
2023-05-22T07:24:47.754Z,3.50
2023-05-22T07:28:50.854Z,4.60
2023-05-22T07:32:55.597Z,4.18
2023-05-22T07:36:58.768Z,3.47
2023-05-22T07:41:03.940Z,3.55
2023-05-22T07:45:08.111Z,3.20
2023-05-22T07:49:13.042Z,4.03
2023-05-22T07:53:16.601Z,3.10
2023-05-22T07:57:19.848Z,3.08
2023-05-22T08:01:24.798Z,3.20
2023-05-22T08:05:29.838Z,3.08
2023-05-22T08:09:35.044Z,2.75
2023-05-22T08:13:39.282Z,4.40
2023-05-22T08:17:44.131Z,3.67
2023-05-22T08:21:48.937Z,3.40
2023-05-22T08:25:51.989Z,2.67
2023-05-22T08:29:55.272Z,2.92
2023-05-22T08:34:02.598Z,2.67
2023-05-22T08:38:08.095Z,3.22
2023-05-22T08:42:11.181Z,2.75
2023-05-22T08:46:16.664Z,3.08
2023-05-22T08:50:20.849Z,3.05
2023-05-22T08:54:28.501Z,2.90
2023-05-22T08:58:33.960Z,2.65
2023-05-22T09:02:39.106Z,2.22
2023-05-22T09:06:42.461Z,2.97
2023-05-22T09:10:47.718Z,2.60
2023-05-22T09:14:51.878Z,3.53
2023-05-22T09:18:58.881Z,2.40
2023-05-22T09:23:02.742Z,3.00
2023-05-22T09:27:11.128Z,2.33
2023-05-22T09:31:14.580Z,2.67
2023-05-22T09:35:19.615Z,2.50
2023-05-22T09:39:22.624Z,2.80
2023-05-22T09:43:27.587Z,1.90
2023-05-22T09:47:30.801Z,2.40
2023-05-22T09:51:37.528Z,2.47
2023-05-22T09:55:41.650Z,2.25
2023-05-22T09:59:54.891Z,3.17
2023-05-22T10:03:59.599Z,2.42
2023-05-22T10:08:09.585Z,2.10
2023-05-22T10:12:16.638Z,2.88
2023-05-22T10:16:21.876Z,2.45
2023-05-22T10:20:26.580Z,2.55
2023-05-22T10:24:31.419Z,3.58
2023-05-22T10:28:40.365Z,2.30
2023-05-22T10:32:48.460Z,2.25
2023-05-22T10:37:13.217Z,2.85
2023-05-22T10:41:20.613Z,2.55
2023-05-22T10:45:26.916Z,2.35
2023-05-22T10:49:32.499Z,1.98
2023-05-22T10:53:36.569Z,2.83
2023-05-22T10:57:41.285Z,2.08
2023-05-22T11:01:44.305Z,2.22
2023-05-22T11:05:55.481Z,2.10
2023-05-22T11:10:01.946Z,2.00
2023-05-22T11:14:05.382Z,1.85
2023-05-22T11:18:08.717Z,1.92
2023-05-22T11:22:14.417Z,1.80
2023-05-22T11:26:23.268Z,1.85
2023-05-22T11:30:29.007Z,2.53
2023-05-22T11:34:32.328Z,1.77
2023-05-22T11:38:37.630Z,1.70
2023-05-22T11:42:41.042Z,2.08
2023-05-22T11:46:45.086Z,2.17
2023-05-22T11:50:49.094Z,2.38
2023-05-22T11:54:54.638Z,2.45
2023-05-22T11:58:58.136Z,2.22
2023-05-22T12:03:01.688Z,1.60
2023-05-22T12:07:06.511Z,1.92
2023-05-22T12:11:13.944Z,2.20
2023-05-22T12:15:21.603Z,1.77
2023-05-22T12:19:27.689Z,1.60
2023-05-22T12:23:31.764Z,2.40
2023-05-22T12:27:38.003Z,1.63
2023-05-22T12:31:42.142Z,2.30
2023-05-22T12:35:45.715Z,1.92
2023-05-22T12:39:56.588Z,2.58
2023-05-22T12:44:02.659Z,1.55
2023-05-22T12:48:05.867Z,2.22
2023-05-22T12:52:09.473Z,1.30
2023-05-22T12:56:13.010Z,1.95
2023-05-22T13:00:19.673Z,1.83
2023-05-22T13:04:23.229Z,1.92
2023-05-22T13:08:26.536Z,2.05
2023-05-22T13:12:31.123Z,2.00
2023-05-22T13:16:37.807Z,1.85
2023-05-22T13:20:42.039Z,1.95
2023-05-22T13:24:45.533Z,2.00
2023-05-22T13:28:48.475Z,1.67
2023-05-22T13:32:53.254Z,1.33
2023-05-22T13:36:56.567Z,2.33
2023-05-22T13:41:00.649Z,1.58
2023-05-22T13:45:03.738Z,2.33
2023-05-22T13:49:08.463Z,1.83
2023-05-22T13:53:11.317Z,2.20
2023-05-22T13:57:14.446Z,1.75
2023-05-22T14:01:17.413Z,1.60
2023-05-22T14:05:22.360Z,2.05
2023-05-22T14:09:25.303Z,1.80
2023-05-22T14:13:28.385Z,2.25
2023-05-22T14:17:31.455Z,2.50
2023-05-22T14:21:36.016Z,1.92
2023-05-22T14:25:42.747Z,2.50
2023-05-22T14:29:45.915Z,2.72
2023-05-22T14:33:48.863Z,2.75
2023-05-22T14:37:53.499Z,2.63
2023-05-22T14:41:56.609Z,2.90
2023-05-22T14:46:00.184Z,2.50
2023-05-22T14:50:18.212Z,2.47
2023-05-22T14:54:24.238Z,2.45
2023-05-22T14:58:27.146Z,2.90
2023-05-22T15:02:30.479Z,3.25
2023-05-22T15:06:33.438Z,3.30
2023-05-22T15:10:38.335Z,2.67
2023-05-22T15:14:41.582Z,3.20
2023-05-22T15:18:45.032Z,2.63
2023-05-22T15:22:48.330Z,2.75
2023-05-22T15:26:53.372Z,2.55
2023-05-22T15:30:56.283Z,2.40
2023-05-22T15:34:59.533Z,2.15
2023-05-22T15:39:03.292Z,2.60
2023-05-22T15:43:08.445Z,2.53
2023-05-22T15:47:11.494Z,2.20
2023-05-22T15:51:14.797Z,2.05
2023-05-22T15:55:17.935Z,2.22
2023-05-22T15:59:39.069Z,2.03
2023-05-22T16:03:42.260Z,1.58
2023-05-22T16:08:00.371Z,2.78
2023-05-22T16:12:03.978Z,1.60
2023-05-22T16:16:09.948Z,2.00
2023-05-22T16:20:13.558Z,1.33
2023-05-22T16:24:16.937Z,1.63
2023-05-22T16:28:20.402Z,2.17
2023-05-22T16:32:25.233Z,1.90
2023-05-22T16:36:28.672Z,1.45
2023-05-22T16:40:32.025Z,1.90
2023-05-22T16:44:34.984Z,2.05
2023-05-22T16:48:39.859Z,2.00
2023-05-22T16:52:43.189Z,1.70
2023-05-22T16:56:46.834Z,1.90
2023-05-22T17:00:51.063Z,2.00
2023-05-22T17:04:56.098Z,1.60
2023-05-22T17:08:59.339Z,1.73
2023-05-22T17:13:02.815Z,1.52
2023-05-22T17:17:06.547Z,2.42
2023-05-22T17:21:11.297Z,1.55
2023-05-22T17:25:15.200Z,1.92
2023-05-22T17:29:18.772Z,1.77
2023-05-22T17:33:22.162Z,1.90
2023-05-22T17:37:27.069Z,2.38
2023-05-22T17:41:31.079Z,1.50
2023-05-22T17:45:34.736Z,2.00
2023-05-22T17:49:38.704Z,1.52
2023-05-22T17:53:43.863Z,1.67
2023-05-22T17:57:46.923Z,2.25
2023-05-22T18:01:50.409Z,1.88
2023-05-22T18:05:53.652Z,2.00
2023-05-22T18:09:58.481Z,2.13
2023-05-22T18:14:01.598Z,2.00
2023-05-22T18:18:05.782Z,1.58
2023-05-22T18:22:08.818Z,2.33
2023-05-22T18:26:13.552Z,1.38
2023-05-22T18:30:17.502Z,2.17
2023-05-22T18:34:20.789Z,1.63
2023-05-22T18:38:24.563Z,2.22
2023-05-22T18:42:29.134Z,2.58
2023-05-22T18:46:32.229Z,2.03
2023-05-22T18:50:35.578Z,2.15
2023-05-22T18:54:38.671Z,1.73
2023-05-22T18:58:43.698Z,2.10
2023-05-22T19:02:47.488Z,2.67
2023-05-22T19:06:54.148Z,2.38
2023-05-22T19:11:00.038Z,1.95
2023-05-22T19:15:08.510Z,2.20
2023-05-22T19:19:11.778Z,2.05
2023-05-22T19:23:15.449Z,2.03
2023-05-22T19:27:18.905Z,2.35
2023-05-22T19:31:23.632Z,2.03
2023-05-22T19:35:26.821Z,2.13
2023-05-22T19:39:29.993Z,2.47
2023-05-22T19:43:33.238Z,2.08
2023-05-22T19:47:38.251Z,2.55
2023-05-22T19:51:42.349Z,2.05
2023-05-22T19:55:46.161Z,2.20
2023-05-22T19:59:49.396Z,1.80
2023-05-22T20:03:57.999Z,1.65
2023-05-22T20:08:01.586Z,1.52
2023-05-22T20:12:04.563Z,1.73
2023-05-22T20:16:13.145Z,1.25
2023-05-22T20:20:18.150Z,2.05
2023-05-22T20:24:22.156Z,2.60
2023-05-22T20:28:26.972Z,1.88
2023-05-22T20:32:30.152Z,1.63
2023-05-22T20:36:35.780Z,2.30
2023-05-22T20:40:39.014Z,1.48
2023-05-22T20:44:43.978Z,2.10
2023-05-22T20:48:48.341Z,2.70
2023-05-22T20:52:53.797Z,1.92
2023-05-22T20:56:57.256Z,2.55
2023-05-22T21:01:00.629Z,2.05
2023-05-22T21:05:04.069Z,1.83
2023-05-22T21:09:09.001Z,2.70
2023-05-22T21:13:12.010Z,2.53
2023-05-22T21:17:15.810Z,2.25
2023-05-22T21:21:21.108Z,2.28
2023-05-22T21:25:25.646Z,2.35
2023-05-22T21:29:28.847Z,1.98
2023-05-22T21:33:32.115Z,2.13
2023-05-22T21:37:35.353Z,2.45
2023-05-22T21:41:40.101Z,1.88
2023-05-22T21:45:43.118Z,2.95
2023-05-22T21:49:46.405Z,2.53
2023-05-22T21:53:49.417Z,3.13
2023-05-22T21:57:54.395Z,2.95
2023-05-22T22:01:57.540Z,2.83
2023-05-22T22:06:01.003Z,3.08
2023-05-22T22:10:04.726Z,2.70
2023-05-22T22:14:10.172Z,2.50
2023-05-22T22:18:15.269Z,3.35
2023-05-22T22:22:18.898Z,3.35
2023-05-22T22:26:22.269Z,4.20
2023-05-22T22:30:26.909Z,3.83
2023-05-22T22:34:29.868Z,3.63
2023-05-22T22:38:35.478Z,3.83
2023-05-22T22:42:38.865Z,4.15
2023-05-22T22:46:44.855Z,5.00
2023-05-22T22:50:47.837Z,4.00
2023-05-22T22:54:51.325Z,5.80
2023-05-22T22:58:54.641Z,5.60
2023-05-22T23:02:59.484Z,4.57
2023-05-22T23:07:03.377Z,4.43
2023-05-22T23:11:07.220Z,4.30
2023-05-22T23:15:13.993Z,3.97
2023-05-22T23:19:19.228Z,4.45
2023-05-22T23:23:22.655Z,5.40
2023-05-22T23:27:26.134Z,4.30
2023-05-22T23:31:30.895Z,4.88
2023-05-22T23:35:36.034Z,5.10
2023-05-22T23:39:40.198Z,4.90
2023-05-22T23:43:43.968Z,5.60
2023-05-22T23:47:47.304Z,6.03
2023-05-22T23:51:52.495Z,5.38
2023-05-22T23:55:55.746Z,5.07
2023-05-22T23:59:59.577Z,5.50
